Time;durP1;ratioP1;P1;durP2;ratioP2;P2;SDS_P1;SDS_P2;PMS_P1;PMS_P2;Temp;Humidity;BMP_temperature;BMP_pressure;BME280_temperature;BME280_humidity;BME280_pressure;Samples;Min_cycle;Max_cycle;Signal;HPM_P1;HPM_P2
2022/07/22 00:01:11;;;;;;;3.08;2.25;;;16.50;99.90;;;-144.05;94.06;125687.94;6124004;23;20017;-84
2022/07/22 00:03:37;;;;;;;5.45;2.70;;;16.50;99.90;;;-144.05;93.96;125687.94;6150797;23;20005;-84
2022/07/22 00:06:04;;;;;;;2.88;2.10;;;16.50;99.90;;;-144.05;93.60;125687.94;6127180;23;20057;-84
2022/07/22 00:08:30;;;;;;;2.92;2.33;;;16.50;99.90;;;-144.05;93.96;125687.94;6148787;23;20002;-89
2022/07/22 00:10:56;;;;;;;4.43;2.40;;;16.50;99.90;;;-144.05;94.10;125687.94;6127568;23;20109;-86
2022/07/22 00:13:21;;;;;;;7.95;2.70;;;16.50;99.90;;;-144.05;93.82;125687.94;6126897;23;20021;-84
2022/07/22 00:15:47;;;;;;;4.45;2.83;;;16.50;99.90;;;-144.05;94.01;125687.94;6131403;23;19994;-86
2022/07/22 00:18:13;;;;;;;7.40;2.90;;;16.40;99.90;;;-144.05;94.08;125687.94;6102310;23;20093;-84
2022/07/22 00:20:39;;;;;;;2.70;2.40;;;16.40;99.90;;;-144.05;94.05;125687.94;6102788;23;20336;-86
2022/07/22 00:23:05;;;;;;;5.72;2.85;;;16.40;99.90;;;-144.05;93.33;125687.94;6128068;23;20006;-84
2022/07/22 00:25:31;;;;;;;4.15;2.75;;;16.40;99.90;;;-144.05;93.35;125687.94;6130716;23;20009;-88
2022/07/22 00:27:57;;;;;;;5.60;2.50;;;16.40;99.90;;;-144.05;93.24;125687.94;6105057;23;20041;-84
2022/07/22 00:30:23;;;;;;;3.25;2.70;;;16.40;99.90;;;-144.05;93.65;125687.94;6128440;23;20005;-84
2022/07/22 00:32:49;;;;;;;5.85;3.03;;;16.40;99.90;;;-144.05;93.68;125687.94;6126934;23;20010;-87
2022/07/22 00:35:15;;;;;;;4.53;3.08;;;16.40;99.90;;;-144.05;93.79;125687.94;6126770;23;20495;-84
2022/07/22 00:37:41;;;;;;;6.90;3.05;;;16.40;99.90;;;-144.05;93.81;125687.94;6126493;23;20013;-84
2022/07/22 00:40:08;;;;;;;5.00;3.00;;;16.40;99.90;;;-144.05;93.76;125687.94;6127608;23;20030;-85
2022/07/22 00:42:34;;;;;;;7.65;3.28;;;16.40;99.90;;;-144.05;93.67;125687.94;6126765;23;20013;-86
2022/07/22 00:45:00;;;;;;;3.55;2.50;;;16.40;99.90;;;-144.05;93.61;125687.94;6126989;23;20009;-85
2022/07/22 00:47:26;;;;;;;7.10;3.15;;;16.40;99.90;;;-144.05;93.65;125687.94;6126767;23;20017;-87
2022/07/22 00:49:52;;;;;;;4.95;2.80;;;16.30;99.90;;;-144.05;93.15;125687.94;6126059;23;20013;-85
2022/07/22 00:52:20;;;;;;;5.00;2.90;;;16.30;99.90;;;-144.05;93.27;125687.94;6126717;23;20100;-86
2022/07/22 00:54:46;;;;;;;5.35;3.15;;;16.30;99.90;;;-144.05;93.15;125687.94;6129794;23;20010;-85
2022/07/22 00:57:12;;;;;;;6.28;2.95;;;16.20;99.90;;;-144.05;93.14;125687.94;6104109;23;20018;-85
2022/07/22 00:59:37;;;;;;;4.88;2.60;;;16.30;99.90;;;-144.05;92.59;125687.94;6130113;23;20010;-87
2022/07/22 01:02:03;;;;;;;4.15;2.17;;;16.20;99.90;;;-144.05;92.86;125687.94;6131088;23;20009;-84
2022/07/22 01:04:29;;;;;;;2.70;2.22;;;16.20;99.90;;;-144.05;92.76;125687.94;6107060;23;20036;-87
2022/07/22 01:06:55;;;;;;;7.20;2.45;;;16.20;99.90;;;-144.05;92.85;125687.94;6107189;23;20013;-85
2022/07/22 01:09:21;;;;;;;5.10;2.72;;;16.20;99.90;;;-144.05;92.48;125687.94;6130740;23;20444;-88
2022/07/22 01:11:48;;;;;;;3.40;2.47;;;16.10;99.90;;;-144.05;92.29;125687.94;6132576;23;20129;-88
2022/07/22 01:14:14;;;;;;;7.20;2.45;;;16.20;99.90;;;-144.05;92.11;125687.94;6132321;23;20002;-83
2022/07/22 01:16:40;;;;;;;7.60;2.80;;;16.10;99.90;;;-144.05;91.93;125687.94;6106080;23;20381;-87
2022/07/22 01:19:06;;;;;;;3.47;2.50;;;16.10;99.90;;;-144.05;92.19;125687.94;6129837;23;20013;-86
2022/07/22 01:21:32;;;;;;;6.05;2.45;;;16.10;99.90;;;-144.05;92.21;125687.94;6130750;23;20014;-83
2022/07/22 01:23:59;;;;;;;3.72;2.33;;;16.10;99.90;;;-144.05;92.06;125687.94;6132609;23;20017;-84
2022/07/22 01:26:25;;;;;;;5.85;2.33;;;16.10;99.90;;;-144.05;92.42;125687.94;6136653;23;20021;-88
2022/07/22 01:28:51;;;;;;;6.70;2.50;;;16.10;99.90;;;-144.05;92.26;125687.94;6142706;23;20452;-87
2022/07/22 01:31:17;;;;;;;6.05;2.35;;;16.10;99.90;;;-144.05;91.95;125687.94;6113279;23;20132;-86
2022/07/22 01:33:45;;;;;;;3.78;2.35;;;16.10;99.90;;;-144.05;92.03;125687.94;6128994;23;20401;-86
2022/07/22 01:36:12;;;;;;;11.00;3.13;;;16.00;99.90;;;-144.05;91.62;125687.94;6137987;23;20006;-84
2022/07/22 01:38:40;;;;;;;4.72;2.35;;;16.00;99.90;;;-144.05;91.68;125687.94;6134063;23;20010;-86
2022/07/22 01:41:06;;;;;;;3.83;2.80;;;16.00;99.90;;;-144.05;91.48;125687.94;6133180;23;20008;-85
2022/07/22 01:43:33;;;;;;;5.53;3.15;;;16.00;99.90;;;-144.05;91.43;125687.94;6132306;23;20451;-86
2022/07/22 01:46:00;;;;;;;4.57;2.58;;;16.00;99.90;;;-144.05;91.46;125687.94;6132762;23;20009;-86
2022/07/22 01:48:26;;;;;;;6.28;3.65;;;16.00;99.90;;;-144.05;91.53;125687.94;6105233;23;20006;-86
2022/07/22 01:50:55;;;;;;;4.55;2.72;;;16.00;99.90;;;-144.05;91.59;125687.94;6130068;23;20010;-85
2022/07/22 01:53:21;;;;;;;4.35;2.33;;;16.00;99.90;;;-144.05;91.48;125687.94;6135798;23;20006;-84
2022/07/22 01:55:47;;;;;;;5.28;2.83;;;16.00;99.90;;;-144.05;91.81;125687.94;6104896;23;20546;-85
2022/07/22 01:58:13;;;;;;;6.05;2.90;;;16.00;99.90;;;-144.05;91.63;125687.94;6129073;23;20010;-86
2022/07/22 02:00:39;;;;;;;8.05;3.65;;;16.10;99.90;;;-144.05;91.77;125687.94;6129181;23;20014;-85
2022/07/22 02:03:06;;;;;;;6.68;4.80;;;16.00;99.90;;;-144.05;91.35;125687.94;6103794;23;20006;-82
2022/07/22 02:05:33;;;;;;;6.43;4.80;;;16.00;99.90;;;-144.05;90.89;125687.94;6129243;23;20060;-88
2022/07/22 02:08:06;;;;;;;6.13;4.57;;;16.00;99.90;;;-144.05;90.79;125687.94;6129809;23;20380;-85
2022/07/22 02:10:32;;;;;;;6.50;4.97;;;15.90;99.90;;;-144.05;90.83;125687.94;6130607;23;20408;-85
2022/07/22 02:12:59;;;;;;;6.47;4.88;;;15.90;99.90;;;-144.05;90.70;125687.94;6131961;23;20028;-84
2022/07/22 02:15:27;;;;;;;5.65;4.20;;;15.90;99.90;;;-144.05;90.84;125687.94;6103700;23;20045;-84
2022/07/22 02:17:55;;;;;;;9.38;4.10;;;15.90;99.90;;;-144.05;90.90;125687.94;6131393;23;20002;-85
2022/07/22 02:20:22;;;;;;;7.13;4.85;;;15.90;99.90;;;-144.05;90.55;125687.94;6130382;23;20423;-84
2022/07/22 02:22:48;;;;;;;7.65;4.28;;;15.90;99.90;;;-144.05;90.75;125687.94;6131626;23;20440;-87
2022/07/22 02:25:16;;;;;;;5.70;4.85;;;15.90;99.90;;;-144.05;90.74;125687.94;6129515;23;20298;-86
2022/07/22 02:27:43;;;;;;;7.53;5.47;;;15.90;99.90;;;-144.05;90.90;125687.94;6129969;23;20405;-86
2022/07/22 02:30:10;;;;;;;7.60;5.68;;;15.90;99.90;;;-144.05;91.00;125687.94;6130129;23;20014;-87
2022/07/22 02:32:37;;;;;;;12.10;6.30;;;15.90;99.90;;;-144.05;90.93;125687.94;6131491;23;20073;-87
2022/07/22 02:35:04;;;;;;;6.85;5.65;;;15.90;99.90;;;-144.05;90.98;125687.94;6132241;23;20064;-88
2022/07/22 02:37:30;;;;;;;11.85;5.72;;;15.90;99.90;;;-144.05;90.86;125687.94;6132472;23;20013;-87
2022/07/22 02:39:55;;;;;;;7.85;5.70;;;15.90;99.90;;;-144.05;90.64;125687.94;6134312;23;20045;-90
2022/07/22 02:42:21;;;;;;;13.95;6.75;;;15.90;99.90;;;-144.05;90.25;125687.94;6133707;23;20012;-89
2022/07/22 02:44:49;;;;;;;6.95;5.32;;;15.90;99.90;;;-144.05;90.43;125687.94;6137950;23;20061;-88
2022/07/22 02:47:16;;;;;;;7.25;5.53;;;15.90;99.90;;;-144.05;90.54;125687.94;6133586;23;20140;-88
2022/07/22 02:49:42;;;;;;;7.82;5.65;;;15.90;99.90;;;-144.05;90.23;125687.94;6133555;23;20092;-87
2022/07/22 02:52:10;;;;;;;9.40;5.47;;;15.90;99.90;;;-144.05;90.37;125687.94;6134198;23;20396;-89
2022/07/22 02:54:36;;;;;;;7.57;5.47;;;15.90;99.90;;;-144.05;90.26;125687.94;6140982;23;20022;-87
2022/07/22 02:57:02;;;;;;;10.45;4.95;;;15.90;99.90;;;-144.05;90.47;125687.94;6126813;23;20041;-86
2022/07/22 02:59:27;;;;;;;10.80;6.47;;;15.90;99.90;;;-144.05;90.22;125687.94;6151554;23;20021;-87
2022/07/22 03:01:53;;;;;;;12.07;6.20;;;15.80;99.90;;;-144.05;89.77;125687.94;6151999;23;20049;-86
2022/07/22 03:04:19;;;;;;;7.53;5.05;;;15.90;99.90;;;-144.05;89.75;125687.94;6133801;23;20010;-87
2022/07/22 03:06:45;;;;;;;9.80;5.50;;;15.80;99.90;;;-144.05;90.01;125687.94;6106609;23;20286;-90
2022/07/22 03:09:11;;;;;;;7.78;5.30;;;15.80;99.90;;;-144.05;90.04;125687.94;6133103;23;20020;-86
2022/07/22 03:11:38;;;;;;;6.88;4.97;;;15.80;99.90;;;-144.05;90.24;125687.94;6134481;23;20115;-87
2022/07/22 03:14:08;;;;;;;8.02;5.10;;;15.80;99.90;;;-144.05;90.48;125687.94;6109210;23;20042;-86
2022/07/22 03:16:47;;;;;;;6.28;5.20;;;15.80;99.90;;;-144.05;90.44;125687.94;6134716;23;20013;-87
2022/07/22 03:19:13;;;;;;;10.07;5.68;;;15.80;99.90;;;-144.05;90.62;125687.94;6108406;23;19986;-89
2022/07/22 03:21:39;;;;;;;10.38;6.00;;;15.80;99.90;;;-144.05;90.52;125687.94;6137268;23;20006;-87
2022/07/22 03:24:05;;;;;;;8.60;5.22;;;15.80;99.90;;;-144.05;90.32;125687.94;6140782;23;20040;-86
2022/07/22 03:26:31;;;;;;;7.95;4.60;;;15.80;99.90;;;-144.05;90.51;125687.94;6133047;23;20006;-86
2022/07/22 03:28:58;;;;;;;8.27;5.88;;;15.80;99.90;;;-144.05;90.57;125687.94;6132069;23;20013;-86
2022/07/22 03:31:24;;;;;;;11.18;5.80;;;15.80;99.90;;;-144.05;89.86;125687.94;6135655;23;20014;-88
2022/07/22 03:33:51;;;;;;;11.05;6.05;;;15.80;99.90;;;-144.05;90.01;125687.94;6110007;23;20014;-87
2022/07/22 03:36:16;;;;;;;8.80;5.75;;;15.80;99.90;;;-144.05;89.94;125687.94;6132452;23;20010;-86
2022/07/22 03:38:42;;;;;;;8.18;5.47;;;15.80;99.90;;;-144.05;89.93;125687.94;6133469;23;20089;-86
2022/07/22 03:41:08;;;;;;;9.00;6.13;;;15.80;99.90;;;-144.05;89.74;125687.94;6107297;23;20013;-85
2022/07/22 03:43:35;;;;;;;10.63;6.72;;;15.80;99.90;;;-144.05;89.90;125687.94;6131432;23;20021;-87
2022/07/22 03:46:00;;;;;;;9.95;6.45;;;15.80;99.90;;;-144.05;90.14;125687.94;6132017;23;20041;-87
2022/07/22 03:48:28;;;;;;;9.35;5.65;;;15.80;99.90;;;-144.05;89.88;125687.94;6133179;23;20010;-86
2022/07/22 03:50:54;;;;;;;10.13;4.93;;;15.80;99.90;;;-144.05;89.97;125687.94;6132142;23;20017;-89
2022/07/22 03:53:20;;;;;;;9.40;4.28;;;15.70;99.90;;;-144.05;90.00;125687.94;6107804;23;20010;-87
2022/07/22 03:55:46;;;;;;;7.88;4.80;;;15.80;99.90;;;-144.05;90.12;125687.94;6132041;23;20008;-86
2022/07/22 03:58:12;;;;;;;10.13;5.13;;;15.80;99.90;;;-144.05;89.97;125687.94;6132937;23;20006;-88
2022/07/22 04:00:39;;;;;;;7.72;3.92;;;15.80;99.90;;;-144.05;89.88;125687.94;6134307;23;20010;-88
2022/07/22 04:03:04;;;;;;;9.15;4.43;;;15.80;99.90;;;-144.05;89.74;125687.94;6131960;23;20013;-89
2022/07/22 04:05:30;;;;;;;8.43;4.35;;;15.80;99.90;;;-144.05;89.36;125687.94;6131113;23;20077;-89
2022/07/22 04:07:56;;;;;;;10.35;3.97;;;15.80;99.90;;;-144.05;89.24;125687.94;6130924;23;20012;-88
2022/07/22 04:10:22;;;;;;;9.68;4.43;;;15.80;99.90;;;-144.05;89.07;125687.94;6107087;23;20010;-85
2022/07/22 04:12:48;;;;;;;11.02;4.25;;;15.70;99.90;;;-144.05;88.60;125687.94;6131563;23;20025;-91
2022/07/22 04:15:14;;;;;;;10.30;4.00;;;15.80;99.90;;;-144.05;88.47;125687.94;6131576;23;20010;-88
2022/07/22 04:17:40;;;;;;;6.00;3.80;;;15.80;99.90;;;-144.05;88.52;125687.94;6131996;23;20002;-87
2022/07/22 04:20:07;;;;;;;8.30;4.07;;;15.80;99.90;;;-144.05;87.98;125687.94;6132563;23;20463;-86
2022/07/22 04:22:33;;;;;;;8.90;3.65;;;15.70;99.90;;;-144.05;87.95;125687.94;6107259;23;20029;-86
2022/07/22 04:24:59;;;;;;;12.52;4.25;;;15.80;99.90;;;-144.05;87.98;125687.94;6131026;23;20053;-88
2022/07/22 04:27:25;;;;;;;7.78;3.42;;;15.80;99.90;;;-144.05;87.93;125687.94;6131696;23;20082;-86
2022/07/22 04:29:51;;;;;;;9.20;3.63;;;15.80;99.90;;;-144.05;87.70;125687.94;6107629;23;20017;-87
2022/07/22 04:32:19;;;;;;;8.75;3.42;;;15.80;99.90;;;-144.05;87.22;125687.94;6132743;23;20093;-89
2022/07/22 04:34:45;;;;;;;10.13;3.05;;;15.80;99.90;;;-144.05;87.10;125687.94;6133611;23;20016;-88
2022/07/22 04:37:12;;;;;;;8.90;3.33;;;15.80;99.90;;;-144.05;86.82;125687.94;6131986;23;20006;-86
2022/07/22 04:39:38;;;;;;;4.22;2.55;;;15.80;99.90;;;-144.05;86.55;125687.94;6133872;23;20060;-88
2022/07/22 04:42:04;;;;;;;8.63;3.38;;;15.80;99.90;;;-144.05;86.45;125687.94;6133413;23;20009;-86
2022/07/22 04:44:30;;;;;;;9.82;3.50;;;15.90;99.90;;;-144.05;85.87;125687.94;6132407;23;20006;-88
2022/07/22 04:46:56;;;;;;;9.57;3.20;;;15.80;99.90;;;-144.05;85.34;125687.94;6115539;23;20014;-85
2022/07/22 04:49:22;;;;;;;7.10;3.05;;;15.80;99.90;;;-144.05;84.99;125687.94;6128562;23;20017;-86
2022/07/22 04:51:48;;;;;;;8.82;2.80;;;15.80;99.90;;;-144.05;84.47;125687.94;6142489;23;20006;-88
2022/07/22 04:54:14;;;;;;;8.15;2.92;;;15.80;99.90;;;-144.05;84.17;125687.94;6131716;23;20002;-86
2022/07/22 04:56:40;;;;;;;11.43;2.95;;;15.80;99.90;;;-144.05;84.06;125687.94;6132758;23;20010;-88
2022/07/22 04:59:06;;;;;;;9.13;3.05;;;15.90;99.90;;;-144.05;83.44;125687.94;6135125;23;20400;-86
2022/07/22 05:01:32;;;;;;;8.50;3.08;;;15.90;99.90;;;-144.05;83.26;125687.94;6133773;23;20010;-89
2022/07/22 05:03:58;;;;;;;7.43;2.75;;;15.90;99.90;;;-144.05;83.04;125687.94;6132135;23;20086;-88
2022/07/22 05:06:24;;;;;;;9.55;3.25;;;15.90;99.90;;;-144.05;83.11;125687.94;6132240;23;20097;-91
2022/07/22 05:08:50;;;;;;;8.43;3.03;;;15.90;99.90;;;-144.05;83.17;125687.94;6106764;23;20010;-90
2022/07/22 05:11:15;;;;;;;8.88;3.72;;;16.00;99.90;;;-144.05;83.39;125687.94;6130189;23;20010;-88
2022/07/22 05:13:41;;;;;;;10.13;4.30;;;16.00;99.90;;;-144.05;82.93;125687.94;6134999;23;20006;-85
2022/07/22 05:16:08;;;;;;;11.00;3.88;;;16.00;99.90;;;-144.05;82.48;125687.94;6153829;23;20002;-89
2022/07/22 05:18:35;;;;;;;9.50;3.83;;;16.00;99.90;;;-144.05;82.40;125687.94;6132120;23;20013;-90
2022/07/22 05:21:03;;;;;;;6.82;3.80;;;16.10;99.90;;;-144.05;82.04;125687.94;6136058;23;20057;-88
2022/07/22 05:23:29;;;;;;;6.18;3.50;;;16.10;99.90;;;-144.05;81.84;125687.94;6135780;23;20006;-89
2022/07/22 05:25:55;;;;;;;8.85;4.18;;;16.20;99.90;;;-144.05;81.44;125687.94;6110571;23;20006;-90
2022/07/22 05:28:21;;;;;;;11.68;4.50;;;16.20;99.90;;;-144.05;81.27;125687.94;6136204;23;20025;-88
2022/07/22 05:30:48;;;;;;;5.55;3.28;;;16.30;99.90;;;-144.05;80.93;125687.94;6133793;23;20016;-89
2022/07/22 05:33:14;;;;;;;11.68;4.30;;;16.40;99.90;;;-144.05;80.86;125687.94;6107977;23;20006;-89
2022/07/22 05:35:40;;;;;;;7.75;3.78;;;16.30;99.90;;;-144.05;80.99;125687.94;6107930;23;20012;-89
2022/07/22 05:38:06;;;;;;;6.68;4.50;;;16.50;99.90;;;-144.05;80.79;125687.94;6132305;23;20452;-90
2022/07/22 05:40:33;;;;;;;14.75;4.82;;;16.50;99.90;;;-144.05;80.47;125687.94;6131959;23;20325;-88
2022/07/22 05:43:00;;;;;;;11.30;4.57;;;16.60;99.90;;;-144.05;79.99;125687.94;6107711;23;20006;-87
2022/07/22 05:45:26;;;;;;;9.48;4.95;;;16.60;99.90;;;-144.05;79.84;125687.94;6133526;23;20002;-88
2022/07/22 05:47:52;;;;;;;7.15;4.80;;;16.50;99.90;;;-144.05;79.07;125687.94;6133799;23;20010;-90
2022/07/22 05:50:18;;;;;;;13.38;5.35;;;16.40;99.90;;;-144.05;79.09;125687.94;6108975;23;20080;-88
2022/07/22 05:52:44;;;;;;;11.45;4.85;;;16.40;99.90;;;-144.05;79.60;125687.94;6133004;23;20076;-87
2022/07/22 05:55:10;;;;;;;8.50;4.15;;;16.30;99.90;;;-144.05;80.09;125687.94;6132249;23;20010;-85
2022/07/22 05:57:36;;;;;;;12.98;4.55;;;16.40;99.90;;;-144.05;79.77;125687.94;6134038;23;20041;-89
2022/07/22 06:00:06;;;;;;;9.00;4.68;;;16.40;99.90;;;-144.05;78.92;125687.94;6134426;23;20010;-90
2022/07/22 06:02:32;;;;;;;10.55;4.18;;;16.30;99.90;;;-144.05;79.23;125687.94;6136610;23;20006;-87
2022/07/22 06:05:00;;;;;;;9.52;4.30;;;16.20;99.90;;;-144.05;79.25;125687.94;6131615;23;20056;-91
2022/07/22 06:07:27;;;;;;;11.80;4.30;;;16.20;99.90;;;-144.05;78.70;125687.94;6104755;23;20072;-88
2022/07/22 06:09:53;;;;;;;7.05;3.65;;;16.10;99.90;;;-144.05;79.20;125687.94;6130958;23;20012;-89
2022/07/22 06:12:20;;;;;;;16.13;4.47;;;16.20;99.90;;;-144.05;78.64;125687.94;6130493;23;20037;-89
2022/07/22 06:14:46;;;;;;;6.97;3.92;;;16.30;99.90;;;-144.05;78.58;125687.94;6105319;23;20014;-88
2022/07/22 06:17:13;;;;;;;6.50;3.30;;;16.30;99.90;;;-144.05;78.48;125687.94;6131330;23;20013;-89
2022/07/22 06:19:39;;;;;;;8.90;3.13;;;16.30;99.90;;;-144.05;77.81;125687.94;6129824;23;20006;-87
2022/07/22 06:22:06;;;;;;;7.20;3.20;;;16.30;99.90;;;-144.05;78.00;125687.94;6129530;23;20088;-91
2022/07/22 06:24:31;;;;;;;8.85;3.40;;;16.30;99.90;;;-144.05;77.96;125687.94;6132617;23;20368;-89
2022/07/22 06:26:57;;;;;;;6.97;2.58;;;16.40;99.90;;;-144.05;77.75;125687.94;6130074;23;20006;-90
2022/07/22 06:29:23;;;;;;;8.40;3.30;;;16.40;99.90;;;-144.05;77.65;125687.94;6104469;23;20108;-89
2022/07/22 06:31:49;;;;;;;11.38;3.38;;;16.50;99.90;;;-144.05;77.46;125687.94;6105725;23;20006;-89
2022/07/22 06:34:15;;;;;;;7.28;2.85;;;16.60;99.90;;;-144.05;77.39;125687.94;6129292;23;20046;-88
2022/07/22 06:36:41;;;;;;;4.47;2.95;;;16.60;99.90;;;-144.05;76.30;125687.94;6129327;23;20002;-89
2022/07/22 06:39:07;;;;;;;6.68;2.85;;;16.70;99.90;;;-144.05;76.19;125687.94;6104461;23;20313;-88
2022/07/22 06:41:33;;;;;;;10.20;3.17;;;16.70;99.90;;;-144.05;75.57;125687.94;6104068;23;20010;-88
2022/07/22 06:43:59;;;;;;;5.18;2.35;;;16.70;99.90;;;-144.05;75.30;125687.94;6105505;23;20018;-87
2022/07/22 06:46:25;;;;;;;6.90;2.65;;;16.70;99.90;;;-144.05;73.55;125687.94;6129200;23;20317;-88
2022/07/22 06:48:54;;;;;;;9.07;3.08;;;16.70;99.90;;;-144.05;74.16;125687.94;6137688;23;20021;-88
2022/07/22 06:51:20;;;;;;;12.43;3.20;;;16.80;99.90;;;-144.05;73.54;125687.94;6106989;23;20014;-90
2022/07/22 06:53:46;;;;;;;8.30;2.83;;;16.80;99.90;;;-144.05;73.39;125687.94;6131215;23;20010;-87
2022/07/22 06:56:12;;;;;;;8.65;3.47;;;16.90;99.90;;;-144.05;73.38;125687.94;6129927;23;20483;-91
2022/07/22 06:58:38;;;;;;;6.10;2.90;;;16.80;99.90;;;-144.05;73.79;125687.94;6131162;23;20024;-89
2022/07/22 07:01:04;;;;;;;6.72;3.05;;;16.90;99.90;;;-144.05;73.61;125687.94;6129808;23;20020;-87
2022/07/22 07:03:30;;;;;;;5.93;2.60;;;17.00;99.90;;;-144.05;73.50;125687.94;6129855;23;20014;-89
2022/07/22 07:05:56;;;;;;;3.45;2.70;;;17.00;99.90;;;-144.05;73.00;125687.94;6131868;23;20014;-88
2022/07/22 07:08:22;;;;;;;7.20;2.88;;;17.00;99.90;;;-144.05;72.56;125687.94;6139052;23;20041;-90
2022/07/22 07:10:48;;;;;;;8.75;2.72;;;17.00;99.90;;;-144.05;72.53;125687.94;6131147;23;20336;-89
2022/07/22 07:13:14;;;;;;;6.10;2.88;;;17.00;99.90;;;-144.05;72.02;125687.94;6129473;23;20017;-87
2022/07/22 07:15:40;;;;;;;9.48;3.15;;;17.00;99.90;;;-144.05;72.11;125687.94;6131544;23;20006;-88
2022/07/22 07:18:05;;;;;;;5.82;2.70;;;17.10;99.90;;;-144.05;71.89;125687.94;6130297;23;20342;-89
2022/07/22 07:20:31;;;;;;;9.95;2.63;;;17.20;99.90;;;-144.05;70.94;125687.94;6104653;23;20006;-90
2022/07/22 07:23:02;;;;;;;4.78;2.42;;;17.30;99.90;;;-144.05;70.97;125687.94;6127866;23;20006;-91
2022/07/22 07:25:28;;;;;;;10.38;3.63;;;17.50;99.90;;;-144.05;70.92;125687.94;6129650;23;20030;-90
2022/07/22 07:27:54;;;;;;;7.25;3.25;;;17.60;99.90;;;-144.05;70.84;125687.94;6130504;23;20009;-89
2022/07/22 07:30:21;;;;;;;7.05;2.50;;;17.70;99.90;;;-144.05;68.92;125687.94;6128242;23;20013;-90
2022/07/22 07:32:47;;;;;;;7.13;2.38;;;17.70;99.90;;;-144.05;69.22;125687.94;6128702;23;20423;-91
2022/07/22 07:35:13;;;;;;;5.93;2.58;;;17.70;99.90;;;-144.05;69.53;125687.94;6128210;23;20067;-90
2022/07/22 07:37:39;;;;;;;4.88;2.55;;;17.80;99.90;;;-144.05;69.77;125687.94;6128152;23;20052;-90
2022/07/22 07:40:07;;;;;;;5.57;2.40;;;17.90;99.90;;;-144.05;69.42;125687.94;6129595;23;20002;-90
2022/07/22 07:42:33;;;;;;;10.77;2.70;;;18.00;99.90;;;-144.05;68.87;125687.94;6127336;23;20040;-88
2022/07/22 07:44:59;;;;;;;4.82;3.00;;;18.00;99.90;;;-144.05;68.72;125687.94;6104048;23;20010;-89
2022/07/22 07:47:25;;;;;;;5.28;2.50;;;18.00;99.90;;;-144.05;68.42;125687.94;6127769;23;20542;-90
2022/07/22 07:49:51;;;;;;;5.95;2.30;;;18.10;99.90;;;-144.05;67.88;125687.94;6128207;23;20095;-89
2022/07/22 07:52:18;;;;;;;5.00;2.15;;;18.20;99.90;;;-144.05;66.80;125687.94;6128431;23;20063;-89
2022/07/22 07:54:46;;;;;;;5.63;2.13;;;18.20;99.90;;;-144.05;66.53;125687.94;6103615;23;20014;-91
2022/07/22 07:57:12;;;;;;;4.65;2.05;;;18.20;99.90;;;-144.05;65.43;125687.94;6127420;23;20086;-90
2022/07/22 07:59:39;;;;;;;7.90;2.33;;;18.30;99.90;;;-144.05;64.82;125687.94;6126739;23;20014;-91
2022/07/22 08:02:07;;;;;;;6.55;2.20;;;18.40;99.90;;;-144.05;63.42;125687.94;6128836;23;20090;-89
2022/07/22 08:04:36;;;;;;;5.63;1.80;;;18.40;99.90;;;-144.05;63.28;125687.94;6126975;23;20010;-87
2022/07/22 08:07:05;;;;;;;3.60;1.42;;;18.40;99.90;;;-144.05;61.82;125687.94;6127569;23;20018;-91
2022/07/22 08:09:37;;;;;;;3.55;2.03;;;18.50;99.90;;;-144.05;60.45;125687.94;6129304;23;20036;-91
2022/07/22 08:12:05;;;;;;;2.58;1.30;;;18.60;99.90;;;-144.05;59.87;125687.94;6108214;23;20014;-89
2022/07/22 08:14:32;;;;;;;3.95;1.80;;;18.60;99.90;;;-144.05;58.83;125687.94;6128610;23;20063;-89
2022/07/22 08:16:58;;;;;;;3.65;1.90;;;18.60;99.90;;;-144.05;59.64;125687.94;6128443;23;20009;-86
2022/07/22 08:19:24;;;;;;;3.28;1.30;;;18.70;99.90;;;-144.05;58.80;125687.94;6128109;23;20002;-90
2022/07/22 08:21:50;;;;;;;1.80;1.50;;;18.80;99.90;;;-144.05;59.48;125687.94;6102200;23;20009;-85
2022/07/22 08:24:16;;;;;;;3.28;1.38;;;18.80;99.90;;;-144.05;57.49;125687.94;6105123;23;20009;-90
2022/07/22 08:26:42;;;;;;;1.63;1.50;;;18.70;99.90;;;-144.05;57.08;125687.94;6129078;23;20356;-88
2022/07/22 08:29:09;;;;;;;4.93;1.52;;;18.70;99.90;;;-144.05;56.78;125687.94;6105262;23;20017;-90
2022/07/22 08:31:37;;;;;;;1.67;1.45;;;18.80;99.90;;;-144.05;57.35;125687.94;6150765;23;20010;-91
2022/07/22 08:34:04;;;;;;;2.58;1.30;;;18.90;99.90;;;-144.05;57.58;125687.94;6129903;23;20010;-88
2022/07/22 08:36:30;;;;;;;4.90;1.50;;;18.90;99.90;;;-144.05;57.99;125687.94;6129454;23;20337;-90
2022/07/22 08:38:57;;;;;;;2.75;1.50;;;18.90;99.90;;;-144.05;58.21;125687.94;6141680;23;20054;-85
2022/07/22 08:41:25;;;;;;;4.53;1.75;;;19.00;99.90;;;-144.05;58.87;125687.94;6147951;23;20026;-86
2022/07/22 08:43:52;;;;;;;1.38;1.27;;;19.00;99.90;;;-144.05;59.15;125687.94;6148862;23;20496;-86
2022/07/22 08:46:18;;;;;;;3.92;1.92;;;19.10;99.90;;;-144.05;58.00;125687.94;6133042;23;20010;-87
2022/07/22 08:48:45;;;;;;;2.70;1.33;;;19.00;99.90;;;-144.05;57.74;125687.94;6104280;23;20344;-89
2022/07/22 08:51:11;;;;;;;6.28;1.70;;;19.00;99.90;;;-144.05;58.97;125687.94;6130234;23;20010;-87
2022/07/22 08:53:37;;;;;;;2.75;1.10;;;19.00;99.90;;;-144.05;58.85;125687.94;6130604;23;20010;-87
2022/07/22 08:56:03;;;;;;;2.33;1.23;;;19.00;99.90;;;-144.05;59.12;125687.94;6128577;23;20436;-88
2022/07/22 08:58:30;;;;;;;4.13;1.73;;;19.00;99.90;;;-144.05;58.65;125687.94;6127482;23;20016;-86
2022/07/22 09:01:18;;;;;;;4.53;1.85;;;19.00;99.90;;;-144.05;58.19;125687.94;6140318;23;20061;-86
2022/07/22 09:03:56;;;;;;;3.28;1.30;;;18.90;99.90;;;-144.05;58.08;125687.94;6149537;23;20026;-83
2022/07/22 09:06:32;;;;;;;2.50;1.48;;;18.90;99.90;;;-144.05;58.41;125687.94;6150882;23;20010;-87
2022/07/22 09:09:06;;;;;;;4.25;1.42;;;18.90;99.90;;;-144.05;57.93;125687.94;6140152;23;20014;-88
2022/07/22 09:11:32;;;;;;;3.25;1.70;;;19.00;99.90;;;-144.05;58.02;125687.94;6128995;23;20056;-89
2022/07/22 09:14:01;;;;;;;5.40;2.63;;;19.00;99.90;;;-144.05;58.32;125687.94;6129592;23;20006;-90
2022/07/22 09:16:47;;;;;;;4.15;2.40;;;19.10;99.90;;;-144.05;58.51;125687.94;6131013;23;20373;-89
2022/07/22 09:19:14;;;;;;;6.28;3.08;;;19.10;99.90;;;-144.05;57.09;125687.94;6130923;23;20093;-90
2022/07/22 09:21:47;;;;;;;8.95;2.72;;;19.10;99.90;;;-144.05;57.36;125687.94;6130424;23;20070;-89
2022/07/22 09:24:37;;;;;;;3.97;2.53;;;19.10;99.90;;;-144.05;56.58;125687.94;6131132;23;20010;-88
2022/07/22 09:27:03;;;;;;;5.10;2.40;;;19.10;99.90;;;-144.05;55.80;125687.94;6130538;23;20387;-91
2022/07/22 09:29:29;;;;;;;3.22;2.20;;;19.10;99.90;;;-144.05;56.30;125687.94;6129358;23;20009;-92
2022/07/22 09:31:57;;;;;;;4.95;3.38;;;19.10;99.90;;;-144.05;56.52;125687.94;6129476;23;20022;-90
2022/07/22 09:34:31;;;;;;;6.28;3.80;;;19.10;99.90;;;-144.05;56.06;125687.94;6105723;23;20408;-91
2022/07/22 09:37:00;;;;;;;3.65;3.00;;;19.00;99.90;;;-144.05;56.69;125687.94;6131210;23;20009;-90
2022/07/22 09:39:33;;;;;;;7.00;3.72;;;19.10;99.90;;;-144.05;57.09;125687.94;6130266;23;20006;-88
2022/07/22 09:42:06;;;;;;;5.47;3.00;;;19.00;99.90;;;-144.05;57.68;125687.94;6131708;23;20010;-90
2022/07/22 09:44:34;;;;;;;4.85;3.70;;;19.00;99.90;;;-144.05;57.20;125687.94;6137215;23;20012;-87
2022/07/22 09:47:00;;;;;;;5.25;3.50;;;19.00;99.90;;;-144.05;57.80;125687.94;6152834;23;20057;-82
2022/07/22 09:49:38;;;;;;;8.25;4.90;;;19.00;99.90;;;-144.05;57.64;125687.94;6128542;23;20073;-84
2022/07/22 09:52:06;;;;;;;7.35;4.95;;;19.00;99.90;;;-144.05;57.95;125687.94;6127804;23;20105;-85
2022/07/22 09:54:32;;;;;;;10.13;6.00;;;19.00;99.90;;;-144.05;57.39;125687.94;6136967;23;20507;-91
2022/07/22 09:56:59;;;;;;;7.97;6.20;;;19.00;99.90;;;-144.05;57.63;125687.94;6105113;23;20417;-87